首页
METAR-TAF:

METAR-TAF

机场 :

西雅圖, 华盛顿, 美国

纬度: 47-32-45N, 经度: 122-18-49W, 海拔: 5米

当前天气观测

该预报发布于57分钟前的23:53 UTC
风速4节,风向西北
温度 7°C
湿度 49%
气压 1020 hPa
能見度: 16.1公里
少量云层高于3000英尺

METAR: KBFI 212353Z 31004KT 10SM FEW030 07/M03 A3012 RMK AO2 SLP199 T00721028 10083 20039 56007

时间: 16:50 (00:50 UTC)

预报

该预报发布于55分钟前的23:55 UTC
预报有效从22日的 00点(UTC)到 22日的 24点(UTC)
风速6节,风向西北
能見度: 10公里
天空无云
从 22日的 0300点(UTC)
风速3节,风向多变
能見度: 10公里
多云层高于20000英尺
从 22日的 0600点(UTC)
风速5节,风向南转南东
能見度: 10公里
多云层高于12000英尺
阴天层高于20000英尺
从 22日的 1100点(UTC)
风速6节,风向南转南东
能見度: 10公里
多云层高于6000英尺
阴天层高于12000英尺
从 22日的 1400点(UTC)
风速6节,风向南转南东
能見度: 10公里
多云层高于3500英尺
阴天层高于6000英尺
附近有阵雨
从 22日的 1800点(UTC)
风速12节,风向,有时为22节阵风
能見度: 10公里
阴天层高于3000英尺
小雨
从 22日的 2200点(UTC)
风速14节,风向,有时为22节阵风
能見度: 10公里
阴天层高于2500英尺
小雨

TAF: KBFI 212355Z 2200/2224 32006KT P6SM SKC FM220300 VRB03KT P6SM BKN200 FM220600 16005KT P6SM BKN120 OVC200 FM221100 15006KT P6SM BKN060 OVC120 FM221400 15006KT P6SM VCSH BKN035 OVC060 FM221800 18012G22KT P6SM -RA OVC030 FM222200 17014G22KT P6SM -RA OVC025

超过4000个机场的气象观测和天气预报(METAR&TAF报告)。

可查询的气象台以黄色和红色小点在地图上表示。

将鼠标移到小点上方,可查看气象台名称。

然后点击查看天气观测和预报。

如需切换地图:点击带黑十字的绿色按钮放大地图;点击带横线的绿色按钮缩小地图;或者点击绿色箭头查看邻近地区的地图。


METAR-TAF: